Time;durP1;ratioP1;P1;durP2;ratioP2;P2;SDS_P1;SDS_P2;PMS_P1;PMS_P2;Temp;Humidity;BMP_temperature;BMP_pressure;BME280_temperature;BME280_humidity;BME280_pressure;Samples;Min_cycle;Max_cycle;Signal;HPM_P1;HPM_P2
2022/05/17 04:56:03;;;;;;;;;;;;;;;21.89;100.00;98663.00;4968375;23;19967;-73
2022/05/17 04:58:30;;;;;;;;;;;;;;;22.67;100.00;98655.00;4867946;29;19956;-73
2022/05/17 05:00:58;;;;;;;;;;;;;;;23.05;97.91;98654.63;4886467;29;19952;-73
2022/05/17 05:03:25;;;;;;;;;;;;;;;23.22;94.67;98660.81;4885575;29;19957;-73
2022/05/17 05:05:53;;;;;;;;;;;;;;;23.42;93.23;98661.97;4886118;29;19956;-74
2022/05/17 05:08:22;;;;;;;;;;;;;;;23.51;93.62;98664.81;4886044;29;19961;-74
2022/05/17 05:10:52;;;;;;;;;;;;;;;23.39;96.91;98667.81;4885857;29;20329;-74
2022/05/17 05:13:20;;;;;;;;;;;;;;;23.74;93.97;98668.28;4885125;29;20249;-73
2022/05/17 05:15:47;;;;;;;;;;;;;;;23.96;93.59;98672.53;4886243;29;20238;-73
2022/05/17 05:18:15;;;;;;;;;;;;;;;24.75;89.53;98678.94;4886351;29;20350;-72
2022/05/17 05:20:43;;;;;;;;;;;;;;;25.12;87.10;98674.63;4885611;29;19952;-73
2022/05/17 05:23:11;;;;;;;;;;;;;;;25.61;78.32;98690.50;4885049;29;20017;-72
2022/05/17 05:25:39;;;;;;;;;;;;;;;25.32;76.72;98682.59;4885980;29;19951;-74
2022/05/17 05:28:07;;;;;;;;;;;;;;;25.47;76.57;98692.06;4883360;29;19950;-74
2022/05/17 05:30:35;;;;;;;;;;;;;;;25.15;81.11;98678.59;4886084;29;19947;-74
2022/05/17 05:33:03;;;;;;;;;;;;;;;24.72;80.13;98683.56;4885261;29;20262;-74
2022/05/17 05:35:32;;;;;;;;;;;;;;;24.24;82.67;98681.84;4882481;29;19965;-74
2022/05/17 05:38:01;;;;;;;;;;;;;;;23.72;86.75;98677.31;4882550;29;19952;-71
2022/05/17 05:40:28;;;;;;;;;;;;;;;23.27;90.53;98674.44;4883436;29;19951;-71
2022/05/17 05:42:57;;;;;;;;;;;;;;;22.84;94.98;98675.47;4884899;29;20276;-71
2022/05/17 05:45:24;;;;;;;;;;;;;;;22.72;95.23;98680.03;4885559;29;19943;-71
2022/05/17 05:47:52;;;;;;;;;;;;;;;22.29;98.62;98680.16;4885008;29;20268;-71
2022/05/17 05:50:19;;;;;;;;;;;;;;;22.10;100.00;98681.34;4869564;29;19976;-71
2022/05/17 05:52:48;;;;;;;;;;;;;;;22.07;100.00;98677.38;4885144;29;19955;-71
2022/05/17 05:55:19;;;;;;;;;;;;;;;22.09;100.00;98679.72;4884619;29;19977;-71
2022/05/17 05:57:47;;;;;;;;;;;;;;;22.04;100.00;98683.97;4884266;29;19948;-71
2022/05/17 06:00:15;;;;;;;;;;;;;;;22.01;100.00;98681.25;4877023;29;19956;-71
2022/05/17 06:02:43;;;;;;;;;;;;;;;21.99;100.00;98675.25;4884176;29;19992;-71
2022/05/17 06:05:10;;;;;;;;;;;;;;;21.92;100.00;98681.22;4884548;29;19953;-71
2022/05/17 06:07:38;;;;;;;;;;;;;;;21.80;100.00;98682.06;4880069;29;20274;-71
2022/05/17 06:10:05;;;;;;;;;;;;;;;;;;4885279;29;19949;-71
2022/05/17 06:12:32;;;;;;;;;;;;;;;21.97;100.00;98686.31;4885035;29;19955;-71
2022/05/17 06:14:59;;;;;;;;;;;;;;;21.95;100.00;98683.94;4886931;29;20371;-71
2022/05/17 06:17:29;;;;;;;;;;;;;;;21.96;100.00;98691.19;4884527;29;19958;-71
2022/05/17 06:19:57;;;;;;;;;;;;;;;21.85;100.00;98692.88;4884255;29;20207;-71
2022/05/17 06:22:27;;;;;;;;;;;;;;;21.83;100.00;98681.13;4881059;29;20532;-71
2022/05/17 06:24:54;;;;;;;;;;;;;;;21.74;100.00;98686.78;4883792;29;19953;-71
2022/05/17 06:27:23;;;;;;;;;;;;;;;21.81;100.00;98689.34;4882716;29;20258;-71
2022/05/17 06:29:52;;;;;;;;;;;;;;;21.89;100.00;98684.97;4885234;29;19961;-72
2022/05/17 06:32:19;;;;;;;;;;;;;;;22.00;100.00;98689.03;4880429;29;19954;-71
2022/05/17 06:34:47;;;;;;;;;;;;;;;22.11;100.00;98683.69;4882880;29;19958;-72
2022/05/17 06:37:15;;;;;;;;;;;;;;;22.10;100.00;98695.56;4883246;29;19960;-71
2022/05/17 06:39:45;;;;;;;;;;;;;;;22.13;100.00;98700.34;4883078;29;19960;-71
2022/05/17 06:42:13;;;;;;;;;;;;;;;22.22;100.00;98694.69;4883449;29;19967;-71
2022/05/17 06:44:41;;;;;;;;;;;;;;;22.25;100.00;98696.63;4867687;29;19958;-71
2022/05/17 06:47:08;;;;;;;;;;;;;;;22.34;100.00;98705.19;4883734;29;19948;-71
2022/05/17 06:49:36;;;;;;;;;;;;;;;22.32;100.00;98702.03;4880512;29;19955;-72
2022/05/17 06:52:04;;;;;;;;;;;;;;;22.24;100.00;98697.88;4881744;29;19957;-72
2022/05/17 06:54:31;;;;;;;;;;;;;;;22.34;100.00;98699.50;4883145;29;19981;-72
2022/05/17 06:57:01;;;;;;;;;;;;;;;22.34;100.00;98690.94;4881378;29;19948;-72
2022/05/17 06:59:29;;;;;;;;;;;;;;;22.44;100.00;98703.19;4878305;29;19957;-72
2022/05/17 07:01:59;;;;;;;;;;;;;;;22.48;100.00;98698.13;4878812;29;19974;-72
2022/05/17 07:04:29;;;;;;;;;;;;;;;22.57;100.00;98706.75;4870865;29;19957;-71
2022/05/17 07:06:58;;;;;;;;;;;;;;;22.66;100.00;98707.59;4881747;29;20251;-72
2022/05/17 07:09:26;;;;;;;;;;;;;;;22.75;100.00;98704.78;4874551;29;20338;-71
2022/05/17 07:14:39;;;;;;;;;;;;;;;22.76;100.00;98708.41;4882963;29;19956;-71
2022/05/17 07:17:15;;;;;;;;;;;;;;;22.86;100.00;98707.19;4882406;29;19949;-71
2022/05/17 07:19:43;;;;;;;;;;;;;;;22.94;100.00;98705.59;4882359;29;19949;-72
2022/05/17 07:22:11;;;;;;;;;;;;;;;23.04;100.00;98706.41;4881736;29;19971;-72
2022/05/17 07:24:41;;;;;;;;;;;;;;;23.13;100.00;98698.69;4882885;29;19957;-72
2022/05/17 07:27:09;;;;;;;;;;;;;;;23.20;100.00;98701.25;4882534;29;20221;-72
2022/05/17 07:29:44;;;;;;;;;;;;;;;23.29;100.00;98706.94;4883035;29;19951;-72
2022/05/17 07:32:12;;;;;;;;;;;;;;;23.41;100.00;98708.09;4882426;29;20242;-72
2022/05/17 07:34:39;;;;;;;;;;;;;;;23.36;100.00;98705.88;4882539;29;19956;-72
2022/05/17 07:37:07;;;;;;;;;;;;;;;23.29;100.00;98709.00;4884478;29;19948;-72
2022/05/17 07:39:34;;;;;;;;;;;;;;;23.28;100.00;98708.22;4882793;29;20230;-72
2022/05/17 07:42:04;;;;;;;;;;;;;;;23.32;100.00;98708.06;4886720;29;19950;-72
2022/05/17 07:44:34;;;;;;;;;;;;;;;23.32;100.00;98708.06;4886907;29;19961;-72
2022/05/17 07:47:02;;;;;;;;;;;;;;;23.37;100.00;98711.13;4895420;29;19959;-72
2022/05/17 07:49:31;;;;;;;;;;;;;;;23.47;100.00;98706.97;4905559;29;19954;-72
2022/05/17 07:51:58;;;;;;;;;;;;;;;23.67;100.00;98709.38;4905388;29;19958;-72
2022/05/17 07:54:26;;;;;;;;;;;;;;;23.70;100.00;98707.63;4905358;29;20316;-72
2022/05/17 07:56:53;;;;;;;;;;;;;;;23.72;100.00;98710.81;4890952;29;19948;-72
2022/05/17 07:59:20;;;;;;;;;;;;;;;23.65;100.00;98703.34;4899406;29;19953;-72
2022/05/17 08:01:47;;;;;;;;;;;;;;;23.81;100.00;98705.88;4892804;29;19944;-72
2022/05/17 08:04:14;;;;;;;;;;;;;;;24.01;100.00;98706.16;4874984;29;19967;-72
2022/05/17 08:06:42;;;;;;;;;;;;;;;23.96;100.00;98703.16;4868119;29;19957;-72
2022/05/17 08:09:09;;;;;;;;;;;;;;;23.99;100.00;98708.69;4868321;29;19958;-72
2022/05/17 08:11:40;;;;;;;;;;;;;;;24.16;100.00;98707.13;4888362;29;20330;-72
2022/05/17 08:14:08;;;;;;;;;;;;;;;24.41;100.00;98696.56;4886617;29;19952;-72
2022/05/17 08:16:39;;;;;;;;;;;;;;;23.91;100.00;98704.59;4886158;29;19949;-72
2022/05/17 08:19:06;;;;;;;;;;;;;;;23.94;100.00;98702.88;4885936;29;20215;-72
2022/05/17 08:21:33;;;;;;;;;;;;;;;23.72;100.00;98699.41;4886096;29;19954;-72
2022/05/17 08:24:00;;;;;;;;;;;;;;;23.82;100.00;98704.59;4886107;29;19973;-72
2022/05/17 08:29:14;;;;;;;;;;;;;;;24.03;100.00;98700.78;4885919;29;19958;-72
2022/05/17 08:31:42;;;;;;;;;;;;;;;24.15;100.00;98699.03;4885967;29;19960;-72
2022/05/17 08:34:10;;;;;;;;;;;;;;;24.43;100.00;98705.47;4885855;29;20331;-73
2022/05/17 08:36:37;;;;;;;;;;;;;;;24.35;100.00;98707.06;4884078;29;19956;-72
2022/05/17 08:39:04;;;;;;;;;;;;;;;24.45;100.00;98702.91;4867197;29;19957;-72
2022/05/17 08:41:53;;;;;;;;;;;;;;;24.49;100.00;98692.09;4876824;29;19956;-72
2022/05/17 08:44:41;;;;;;;;;;;;;;;24.55;100.00;98704.47;4885626;29;20044;-72
2022/05/17 08:47:12;;;;;;;;;;;;;;;24.58;100.00;98703.47;4863874;29;19947;-73
2022/05/17 08:50:05;;;;;;;;;;;;;;;24.28;100.00;98690.28;4885009;29;19945;-72
2022/05/17 08:52:36;;;;;;;;;;;;;;;24.45;100.00;98695.13;4885452;29;19952;-73
2022/05/17 08:55:15;;;;;;;;;;;;;;;24.55;100.00;98695.91;4885307;29;19976;-72
2022/05/17 08:57:45;;;;;;;;;;;;;;;24.66;100.00;98699.00;4891097;29;20249;-73
2022/05/17 09:00:18;;;;;;;;;;;;;;;24.70;100.00;98699.63;4873177;29;19949;-72
2022/05/17 09:02:50;;;;;;;;;;;;;;;24.57;100.00;98693.34;4881637;29;19951;-72
2022/05/17 09:05:17;;;;;;;;;;;;;;;24.38;100.00;98689.75;4883617;29;19994;-73
2022/05/17 09:07:54;;;;;;;;;;;;;;;24.34;100.00;98685.47;4885120;29;19946;-73
2022/05/17 09:10:24;;;;;;;;;;;;;;;24.52;100.00;98686.22;4885056;29;20263;-72
2022/05/17 09:13:00;;;;;;;;;;;;;;;24.70;100.00;98693.91;4876547;29;19952;-72
2022/05/17 09:15:27;;;;;;;;;;;;;;;24.85;100.00;98694.00;4881536;29;19953;-73
2022/05/17 09:17:57;;;;;;;;;;;;;;;24.90;100.00;98679.84;4865938;29;19953;-73
2022/05/17 09:20:28;;;;;;;;;;;;;;;24.72;100.00;98685.66;4865463;29;19961;-73
2022/05/17 09:22:55;;;;;;;;;;;;;;;24.85;100.00;98689.09;4869725;29;19972;-73
2022/05/17 09:25:43;;;;;;;;;;;;;;;24.92;100.00;98685.09;4884357;29;19962;-73
2022/05/17 09:28:14;;;;;;;;;;;;;;;24.92;100.00;98682.25;4867919;29;19962;-72
2022/05/17 09:30:41;;;;;;;;;;;;;;;25.02;100.00;98678.81;4884171;29;19948;-72
2022/05/17 09:33:09;;;;;;;;;;;;;;;25.08;100.00;98673.22;4885184;29;19950;-73
2022/05/17 09:35:39;;;;;;;;;;;;;;;25.13;100.00;98667.63;4885257;29;20361;-73
2022/05/17 09:38:08;;;;;;;;;;;;;;;25.06;100.00;98675.78;4885073;29;19953;-73
2022/05/17 09:40:38;;;;;;;;;;;;;;;25.17;100.00;98668.22;4884259;29;19946;-73
2022/05/17 09:43:07;;;;;;;;;;;;;;;25.24;100.00;98659.28;4884186;29;20377;-72
2022/05/17 09:45:49;;;;;;;;;;;;;;;25.15;100.00;98662.22;4884051;29;19957;-72
2022/05/17 09:48:28;;;;;;;;;;;;;;;25.18;100.00;98660.44;4884513;29;19958;-72
2022/05/17 09:53:45;;;;;;;;;;;;;;;24.89;100.00;98651.72;4894196;29;19952;-72
2022/05/17 09:56:13;;;;;;;;;;;;;;;24.98;100.00;98652.47;4886273;29;20056;-72
2022/05/17 09:58:43;;;;;;;;;;;;;;;25.11;100.00;98655.88;4884663;29;19988;-72
2022/05/17 10:01:15;;;;;;;;;;;;;;;25.06;100.00;98650.03;4884064;29;19952;-73
2022/05/17 10:03:57;;;;;;;;;;;;;;;25.03;100.00;98648.13;4874062;29;19975;-73
2022/05/17 10:06:29;;;;;;;;;;;;;;;25.19;100.00;98639.91;4879369;29;20350;-73
2022/05/17 10:09:25;;;;;;;;;;;;;;;25.03;100.00;98642.41;4875916;29;19979;-72
2022/05/17 10:11:58;;;;;;;;;;;;;;;24.55;100.00;98653.00;4861530;29;19956;-73
2022/05/17 10:14:41;;;;;;;;;;;;;;;24.93;100.00;98641.69;4886143;29;19952;-72
2022/05/17 10:17:24;;;;;;;;;;;;;;;25.08;100.00;98636.03;4873833;29;20350;-72
2022/05/17 10:20:00;;;;;;;;;;;;;;;25.26;100.00;98635.91;4895778;29;19948;-73
2022/05/17 10:22:34;;;;;;;;;;;;;;;25.36;100.00;98637.38;4882936;29;19950;-73
2022/05/17 10:25:05;;;;;;;;;;;;;;;25.39;100.00;98637.22;4883831;29;19972;-72
2022/05/17 10:27:38;;;;;;;;;;;;;;;25.21;100.00;98639.44;4884117;29;19952;-72
2022/05/17 10:30:08;;;;;;;;;;;;;;;25.40;100.00;98627.34;4883729;29;19949;-72
2022/05/17 10:32:41;;;;;;;;;;;;;;;25.26;100.00;98633.81;4883997;29;19958;-72
2022/05/17 10:35:27;;;;;;;;;;;;;;;25.24;100.00;98624.91;4883689;29;19958;-72
2022/05/17 10:37:59;;;;;;;;;;;;;;;24.89;100.00;98634.56;4883839;29;19952;-73
2022/05/17 10:40:32;;;;;;;;;;;;;;;25.09;100.00;98629.81;4883774;29;19955;-73
2022/05/17 10:43:00;;;;;;;;;;;;;;;25.23;100.00;98620.50;4867728;29;19962;-73
2022/05/17 10:45:33;;;;;;;;;;;;;;;25.36;100.00;98615.28;4883288;29;19976;-73
2022/05/17 10:48:11;;;;;;;;;;;;;;;25.37;100.00;98621.81;4870397;29;19951;-73
2022/05/17 10:50:57;;;;;;;;;;;;;;;25.41;100.00;98620.31;4886994;29;20209;-73
2022/05/17 10:53:24;;;;;;;;;;;;;;;25.57;100.00;98609.72;4886210;29;20356;-73
2022/05/17 10:56:01;;;;;;;;;;;;;;;25.55;100.00;98618.03;4884182;29;20386;-73
2022/05/17 10:58:31;;;;;;;;;;;;;;;25.53;100.00;98614.88;4901597;29;20407;-74
2022/05/17 11:01:03;;;;;;;;;;;;;;;25.39;100.00;98619.22;4901484;29;19957;-73
2022/05/17 11:03:47;;;;;;;;;;;;;;;25.49;100.00;98612.19;4894559;29;19953;-73
2022/05/17 11:06:24;;;;;;;;;;;;;;;25.58;100.00;98606.34;4883077;29;19952;-73
2022/05/17 11:09:07;;;;;;;;;;;;;;;25.77;100.00;98606.97;4886223;29;20315;-73
2022/05/17 11:11:57;;;;;;;;;;;;;;;25.64;100.00;98601.53;4882689;29;19947;-73
2022/05/17 11:14:38;;;;;;;;;;;;;;;25.68;100.00;98599.25;4883724;29;19956;-74
2022/05/17 11:17:14;;;;;;;;;;;;;;;25.63;100.00;98597.06;4882106;29;19957;-73
2022/05/17 11:19:48;;;;;;;;;;;;;;;25.75;100.00;98589.50;4882777;29;20344;-73
2022/05/17 11:22:22;;;;;;;;;;;;;;;25.79;100.00;98598.69;4882888;29;19953;-73
2022/05/17 11:25:06;;;;;;;;;;;;;;;25.66;100.00;98595.31;4883523;29;19975;-73
2022/05/17 11:27:36;;;;;;;;;;;;;;;25.79;100.00;98596.63;4882850;29;20324;-73
2022/05/17 11:30:08;;;;;;;;;;;;;;;26.00;100.00;98591.75;4883185;29;19953;-73
2022/05/17 11:32:39;;;;;;;;;;;;;;;25.88;100.00;98590.78;4882600;29;20331;-73
2022/05/17 11:35:42;;;;;;;;;;;;;;;25.84;100.00;98587.31;4883587;29;19955;-73
2022/05/17 11:38:16;;;;;;;;;;;;;;;25.86;100.00;98586.81;4825961;29;19983;-73
2022/05/17 11:40:46;;;;;;;;;;;;;;;26.01;100.00;98584.75;4873752;29;19953;-71
2022/05/17 11:46:05;;;;;;;;;;;;;;;25.82;100.00;98574.78;4880697;29;19984;-72
2022/05/17 11:48:46;;;;;;;;;;;;;;;25.95;100.00;98566.66;4882675;29;19956;-74
2022/05/17 11:51:13;;;;;;;;;;;;;;;25.93;100.00;98563.50;4876192;29;19991;-73
2022/05/17 11:53:42;;;;;;;;;;;;;;;25.82;100.00;98564.09;4882023;29;20324;-74
2022/05/17 11:56:11;;;;;;;;;;;;;;;25.90;100.00;98562.41;4882282;29;19968;-74
2022/05/17 11:58:38;;;;;;;;;;;;;;;25.81;100.00;98558.84;4864197;29;19958;-74
2022/05/17 12:01:25;;;;;;;;;;;;;;;25.97;100.00;98553.41;4884288;29;19948;-74
2022/05/17 12:03:54;;;;;;;;;;;;;;;26.07;100.00;98548.34;4851201;29;19951;-74
2022/05/17 12:06:41;;;;;;;;;;;;;;;26.19;100.00;98555.88;4882008;29;19951;-74
2022/05/17 12:09:11;;;;;;;;;;;;;;;26.25;100.00;98550.22;4881559;29;19952;-74
2022/05/17 12:11:48;;;;;;;;;;;;;;;26.42;98.02;98551.28;4885638;29;20352;-74
2022/05/17 12:14:21;;;;;;;;;;;;;;;26.35;100.00;98543.88;4877541;29;19948;-73
2022/05/17 12:16:50;;;;;;;;;;;;;;;26.38;100.00;98533.50;4878054;29;19953;-74
2022/05/17 12:19:26;;;;;;;;;;;;;;;26.37;100.00;98531.91;4882255;29;19943;-73
2022/05/17 12:21:58;;;;;;;;;;;;;;;26.32;100.00;98532.59;4882652;29;19963;-72
2022/05/17 12:24:43;;;;;;;;;;;;;;;26.20;97.69;98537.38;4885299;29;19975;-72
2022/05/17 12:27:19;;;;;;;;;;;;;;;26.29;93.72;98531.53;4886261;29;19950;-72
2022/05/17 12:32:52;;;;;;;;;;;;;;;26.18;93.17;98525.63;4886353;29;19951;-73
2022/05/17 12:35:24;;;;;;;;;;;;;;;26.26;100.00;98521.09;4886236;29;19958;-73
2022/05/17 12:37:52;;;;;;;;;;;;;;;26.24;97.58;98520.75;4882650;29;19951;-73
2022/05/17 12:43:12;;;;;;;;;;;;;;;26.12;89.27;98518.25;4905185;29;19946;-74
2022/05/17 12:45:46;;;;;;;;;;;;;;;26.07;84.49;98513.97;4904688;29;19967;-73
2022/05/17 12:48:15;;;;;;;;;;;;;;;26.12;84.74;98512.53;4904637;29;19958;-73
2022/05/17 12:50:45;;;;;;;;;;;;;;;26.21;95.61;98507.44;4904585;29;19942;-74
2022/05/17 12:53:29;;;;;;;;;;;;;;;26.06;80.81;98509.53;4904860;29;19949;-73
2022/05/17 12:55:56;;;;;;;;;;;;;;;26.04;84.01;98507.16;4878414;29;19976;-73
2022/05/17 12:58:24;;;;;;;;;;;;;;;26.15;83.45;98497.16;4885663;29;19963;-73
2022/05/17 13:00:55;;;;;;;;;;;;;;;26.20;85.49;98497.25;4885303;29;19951;-74
2022/05/17 13:03:24;;;;;;;;;;;;;;;26.27;84.51;98493.97;4876425;29;19974;-74
2022/05/17 13:05:54;;;;;;;;;;;;;;;26.34;89.39;98487.00;4880643;29;19967;-74
2022/05/17 13:08:26;;;;;;;;;;;;;;;26.38;86.23;98491.28;4885333;29;20250;-73
2022/05/17 13:11:02;;;;;;;;;;;;;;;26.38;83.14;98481.88;4881586;29;20358;-72
2022/05/17 13:13:31;;;;;;;;;;;;;;;26.39;80.70;98483.44;4877325;29;20335;-72
2022/05/17 13:16:02;;;;;;;;;;;;;;;26.29;71.03;98491.38;4877738;29;19958;-72
2022/05/17 13:18:34;;;;;;;;;;;;;;;26.33;68.41;98486.25;4879306;29;19959;-73
2022/05/17 13:21:08;;;;;;;;;;;;;;;26.30;70.70;98483.59;4882361;29;19950;-73
2022/05/17 13:23:36;;;;;;;;;;;;;;;26.33;73.12;98479.72;4876461;29;19951;-72
2022/05/17 13:26:03;;;;;;;;;;;;;;;26.36;78.34;98473.75;4880829;29;20262;-72
2022/05/17 13:28:32;;;;;;;;;;;;;;;26.45;80.80;98470.78;4884067;29;19952;-72
2022/05/17 13:31:03;;;;;;;;;;;;;;;26.47;84.97;98468.19;4890609;29;19955;-73
2022/05/17 13:33:31;;;;;;;;;;;;;;;26.49;86.67;98465.59;4891212;29;19948;-71
2022/05/17 13:36:25;;;;;;;;;;;;;;;26.52;80.70;98463.81;4881897;29;19953;-72
2022/05/17 13:38:52;;;;;;;;;;;;;;;26.51;79.57;98465.88;4887086;29;19953;-71
2022/05/17 13:41:28;;;;;;;;;;;;;;;26.59;82.94;98460.50;4887531;29;19957;-71
2022/05/17 13:43:57;;;;;;;;;;;;;;;26.60;91.60;98453.50;4891683;29;19946;-72
2022/05/17 13:46:26;;;;;;;;;;;;;;;26.60;82.83;98460.03;4897439;29;20393;-72
2022/05/17 13:49:02;;;;;;;;;;;;;;;26.55;84.18;98455.00;4888276;29;19950;-72
2022/05/17 13:51:48;;;;;;;;;;;;;;;26.55;83.90;98457.06;4887840;29;19985;-72
2022/05/17 13:54:24;;;;;;;;;;;;;;;26.45;75.30;98447.84;4882607;29;19977;-72
2022/05/17 13:56:55;;;;;;;;;;;;;;;26.38;74.69;98448.25;4880261;29;20345;-72
2022/05/17 13:59:23;;;;;;;;;;;;;;;26.40;81.58;98444.88;4883554;29;19952;-72
2022/05/17 14:01:55;;;;;;;;;;;;;;;26.41;77.91;98435.75;4864313;29;19956;-72
2022/05/17 14:04:37;;;;;;;;;;;;;;;26.31;67.20;98440.06;4880953;29;19960;-72
2022/05/17 14:07:17;;;;;;;;;;;;;;;26.38;68.69;98439.66;4880834;29;20349;-72
2022/05/17 14:13:06;;;;;;;;;;;;;;;26.31;71.97;98431.47;4881528;29;19949;-72
2022/05/17 14:15:37;;;;;;;;;;;;;;;26.35;75.96;98432.06;4881264;29;19954;-73
2022/05/17 14:18:05;;;;;;;;;;;;;;;26.38;81.85;98433.94;4881353;29;19961;-72
2022/05/17 14:20:32;;;;;;;;;;;;;;;26.38;81.41;98431.06;4879642;29;20250;-73
2022/05/17 14:23:01;;;;;;;;;;;;;;;26.33;74.24;98430.97;4880748;29;20520;-72
2022/05/17 14:25:28;;;;;;;;;;;;;;;26.28;74.44;98429.63;4884240;29;20257;-72
2022/05/17 14:27:59;;;;;;;;;;;;;;;26.39;70.62;98426.88;4889465;29;19960;-72
2022/05/17 14:30:26;;;;;;;;;;;;;;;26.38;71.56;98413.84;4886547;29;19960;-73
2022/05/17 14:32:55;;;;;;;;;;;;;;;26.42;67.59;98411.56;4886934;29;19972;-73
2022/05/17 14:35:24;;;;;;;;;;;;;;;26.36;67.69;98419.28;4887715;29;19952;-74
2022/05/17 14:37:53;;;;;;;;;;;;;;;26.31;69.26;98413.50;4891473;29;20293;-72
2022/05/17 14:40:20;;;;;;;;;;;;;;;26.30;72.65;98418.44;4887168;29;19953;-72
2022/05/17 14:42:48;;;;;;;;;;;;;;;26.29;76.63;98411.09;4889689;29;19956;-73
2022/05/17 14:45:16;;;;;;;;;;;;;;;26.28;78.56;98406.69;4877513;29;20362;-72
2022/05/17 14:47:47;;;;;;;;;;;;;;;26.31;64.57;98407.75;4882233;29;19960;-73
2022/05/17 14:50:18;;;;;;;;;;;;;;;26.23;67.80;98407.41;4898451;29;19959;-72
2022/05/17 14:52:46;;;;;;;;;;;;;;;26.21;66.29;98404.25;4884114;29;19962;-72
2022/05/17 14:55:14;;;;;;;;;;;;;;;26.21;67.12;98397.72;4893131;29;19978;-73
2022/05/17 14:57:43;;;;;;;;;;;;;;;26.17;68.43;98392.19;4880725;29;19950;-73
2022/05/17 15:00:13;;;;;;;;;;;;;;;26.18;70.16;98395.84;4880592;29;19969;-73
2022/05/17 15:02:48;;;;;;;;;;;;;;;26.18;74.77;98379.44;4883442;29;19957;-72
2022/05/17 15:05:20;;;;;;;;;;;;;;;26.15;73.80;98388.25;4881702;29;19964;-72
2022/05/17 15:07:49;;;;;;;;;;;;;;;26.15;75.02;98391.13;4881905;29;19952;-74
2022/05/17 15:10:18;;;;;;;;;;;;;;;26.15;70.90;98386.19;4882326;29;19970;-74
2022/05/17 15:12:46;;;;;;;;;;;;;;;26.11;71.76;98385.59;4868549;29;19954;-74
2022/05/17 15:15:13;;;;;;;;;;;;;;;26.10;72.31;98381.13;4883587;29;19953;-74
2022/05/17 15:17:40;;;;;;;;;;;;;;;26.06;69.50;98378.50;4883810;29;19955;-74
2022/05/17 15:20:10;;;;;;;;;;;;;;;26.06;74.14;98383.44;4882112;29;19954;-74
2022/05/17 15:22:41;;;;;;;;;;;;;;;26.04;73.38;98378.19;4876035;29;19952;-74
2022/05/17 15:25:08;;;;;;;;;;;;;;;26.03;72.22;98370.88;4879629;29;19951;-74
2022/05/17 15:27:36;;;;;;;;;;;;;;;26.05;73.61;98376.09;4882256;29;19991;-74
2022/05/17 15:30:06;;;;;;;;;;;;;;;26.09;74.75;98382.44;4881786;29;19956;-74
2022/05/17 15:32:35;;;;;;;;;;;;;;;26.04;72.56;98371.69;4891374;29;19953;-74
2022/05/17 15:35:09;;;;;;;;;;;;;;;26.02;70.30;98372.16;4879321;29;19967;-74
2022/05/17 15:37:38;;;;;;;;;;;;;;;25.99;72.48;98370.28;4879648;29;19952;-75
2022/05/17 15:40:08;;;;;;;;;;;;;;;25.96;73.92;98367.66;4889768;29;19948;-75
2022/05/17 15:42:35;;;;;;;;;;;;;;;26.03;67.25;98368.00;4890380;29;19957;-74
2022/05/17 15:45:03;;;;;;;;;;;;;;;26.14;74.86;98367.38;4882572;29;19957;-74
2022/05/17 15:53:20;;;;;;;;;;;;;;;25.83;75.11;98350.00;4882046;29;19952;-74
2022/05/17 15:55:50;;;;;;;;;;;;;;;25.86;71.60;98355.53;4882606;29;19968;-74
2022/05/17 15:58:18;;;;;;;;;;;;;;;25.85;71.78;98347.44;4884537;29;19951;-74
2022/05/17 16:00:46;;;;;;;;;;;;;;;25.81;74.83;98352.59;4886752;29;19956;-73
2022/05/17 16:03:13;;;;;;;;;;;;;;;25.74;73.29;98347.28;4885514;29;19959;-72
2022/05/17 16:05:41;;;;;;;;;;;;;;;25.72;68.79;98347.00;4885377;29;20029;-72
2022/05/17 16:08:12;;;;;;;;;;;;;;;25.72;70.07;98347.00;4886233;29;19951;-73
2022/05/17 16:10:46;;;;;;;;;;;;;;;25.71;74.31;98354.00;4869783;29;19952;-72
2022/05/17 16:13:15;;;;;;;;;;;;;;;25.67;75.78;98348.50;4882574;29;19959;-72
2022/05/17 16:15:44;;;;;;;;;;;;;;;25.66;77.31;98346.13;4880707;29;19953;-71
2022/05/17 16:18:19;;;;;;;;;;;;;;;25.61;79.67;98350.47;4881358;29;19951;-71
2022/05/17 16:20:47;;;;;;;;;;;;;;;25.57;79.82;98352.78;4884809;29;19954;-72
2022/05/17 16:23:14;;;;;;;;;;;;;;;25.55;79.12;98349.63;4882307;29;19956;-72
2022/05/17 16:25:43;;;;;;;;;;;;;;;25.51;78.98;98348.22;4883826;29;19963;-72
2022/05/17 16:28:11;;;;;;;;;;;;;;;25.47;83.03;98348.44;4878141;29;19946;-72
2022/05/17 16:30:40;;;;;;;;;;;;;;;25.42;82.10;98343.41;4884098;29;20331;-71
2022/05/17 16:33:07;;;;;;;;;;;;;;;25.38;82.47;98337.84;4883558;29;19958;-71
2022/05/17 16:35:37;;;;;;;;;;;;;;;25.35;84.54;98340.94;4885223;29;19965;-71
2022/05/17 16:38:05;;;;;;;;;;;;;;;25.30;85.60;98342.44;4885817;29;19956;-71
2022/05/17 16:40:34;;;;;;;;;;;;;;;25.27;85.11;98340.56;4885995;29;19956;-71
2022/05/17 16:43:01;;;;;;;;;;;;;;;25.26;85.99;98341.06;4885369;29;19957;-71
2022/05/17 16:45:30;;;;;;;;;;;;;;;25.23;88.03;98336.34;4884340;29;19951;-72
2022/05/17 16:47:58;;;;;;;;;;;;;;;25.18;89.57;98334.97;4884519;29;19973;-71
2022/05/17 16:50:36;;;;;;;;;;;;;;;25.13;89.83;98332.00;4883867;29;20239;-71
2022/05/17 16:53:04;;;;;;;;;;;;;;;25.08;90.82;98333.50;4885242;29;19950;-71
2022/05/17 16:55:32;;;;;;;;;;;;;;;25.05;92.59;98331.59;4885483;29;19971;-72
2022/05/17 16:57:59;;;;;;;;;;;;;;;25.06;91.23;98327.47;4885262;29;19950;-72
2022/05/17 17:00:27;;;;;;;;;;;;;;;25.04;91.64;98330.03;4866283;29;19963;-71
2022/05/17 17:02:54;;;;;;;;;;;;;;;25.01;89.07;98330.25;4886139;29;19963;-71
2022/05/17 17:05:23;;;;;;;;;;;;;;;25.02;91.46;98331.78;4885918;29;19951;-72
2022/05/17 17:07:53;;;;;;;;;;;;;;;24.95;88.87;98337.91;4884497;29;19975;-72
2022/05/17 17:10:24;;;;;;;;;;;;;;;24.94;88.17;98342.88;4883304;29;19967;-71
2022/05/17 17:12:52;;;;;;;;;;;;;;;24.97;89.46;98341.88;4885542;29;19947;-71
2022/05/17 17:15:21;;;;;;;;;;;;;;;24.94;90.15;98342.88;4883410;29;19959;-72
2022/05/17 17:17:48;;;;;;;;;;;;;;;24.88;93.75;98344.84;4882108;29;20326;-71
2022/05/17 17:20:17;;;;;;;;;;;;;;;24.82;91.38;98343.94;4877897;29;19976;-69
2022/05/17 17:22:45;;;;;;;;;;;;;;;24.79;89.58;98342.88;4882246;29;19953;-70
2022/05/17 17:25:13;;;;;;;;;;;;;;;24.78;88.93;98334.78;4881087;29;19949;-70
2022/05/17 17:27:42;;;;;;;;;;;;;;;24.75;88.22;98344.31;4883518;29;19962;-69
2022/05/17 17:30:10;;;;;;;;;;;;;;;24.74;89.01;98337.03;4883281;29;19955;-69
2022/05/17 17:38:16;;;;;;;;;;;;;;;24.65;83.18;98343.59;4878072;29;19960;-70
2022/05/17 17:40:43;;;;;;;;;;;;;;;24.66;82.11;98339.47;4884511;29;19950;-70
2022/05/17 17:43:11;;;;;;;;;;;;;;;24.64;82.11;98335.53;4877112;29;19953;-70
2022/05/17 17:45:38;;;;;;;;;;;;;;;24.63;80.57;98334.75;4883234;29;19958;-70
2022/05/17 17:48:08;;;;;;;;;;;;;;;24.65;79.90;98337.09;4885085;29;19969;-70
2022/05/17 17:50:35;;;;;;;;;;;;;;;24.66;79.89;98338.69;4885001;29;19957;-70
2022/05/17 17:53:02;;;;;;;;;;;;;;;24.62;81.21;98344.63;4884541;29;19948;-70
2022/05/17 17:55:31;;;;;;;;;;;;;;;24.63;78.58;98336.81;4883842;29;20001;-70
2022/05/17 17:57:58;;;;;;;;;;;;;;;24.67;76.02;98340.28;4886256;29;19952;-70
2022/05/17 18:00:27;;;;;;;;;;;;;;;24.67;79.75;98331.69;4881137;29;19956;-70
2022/05/17 18:02:56;;;;;;;;;;;;;;;24.72;74.69;98340.34;4884039;29;19947;-70
2022/05/17 18:05:24;;;;;;;;;;;;;;;24.77;74.13;98342.56;4883415;29;19951;-70
2022/05/17 18:07:52;;;;;;;;;;;;;;;24.81;74.13;98345.25;4882459;29;19966;-70
2022/05/17 18:10:20;;;;;;;;;;;;;;;24.83;73.75;98348.38;4883519;29;19951;-70
2022/05/17 18:12:49;;;;;;;;;;;;;;;24.78;78.38;98349.06;4883979;29;19946;-69
2022/05/17 18:15:16;;;;;;;;;;;;;;;24.71;75.90;98349.44;4883339;29;19949;-70
2022/05/17 18:17:45;;;;;;;;;;;;;;;24.68;72.04;98347.56;4881728;29;19951;-70
2022/05/17 18:20:15;;;;;;;;;;;;;;;24.63;75.32;98345.38;4883820;29;20347;-70
2022/05/17 18:22:42;;;;;;;;;;;;;;;24.63;72.47;98351.09;4878495;29;19952;-70
2022/05/17 18:25:10;;;;;;;;;;;;;;;24.66;70.35;98355.84;4882487;29;19953;-70
2022/05/17 18:27:40;;;;;;;;;;;;;;;24.70;72.14;98350.72;4883549;29;19971;-70